Time;durP1;ratioP1;P1;durP2;ratioP2;P2;SDS_P1;SDS_P2;PMS_P1;PMS_P2;Temp;Humidity;BMP_temperature;BMP_pressure;BME280_temperature;BME280_humidity;BME280_pressure;Samples;Min_cycle;Max_cycle;Signal;HPM_P1;HPM_P2
2022/01/11 00:00:35;;;;;;;46.55;19.77;;;0.40;99.90;;;;;;5054837;28;20191;-49
2022/01/11 00:03:03;;;;;;;59.03;20.90;;;0.50;99.90;;;;;;5055267;28;20040;-50
2022/01/11 00:05:38;;;;;;;37.28;19.65;;;0.40;99.90;;;;;;5055040;28;20313;-48
2022/01/11 00:08:07;;;;;;;40.25;18.95;;;0.40;99.90;;;;;;5054097;28;20056;-49
2022/01/11 00:10:39;;;;;;;64.95;21.05;;;0.40;99.90;;;;;;5054868;28;20501;-48
2022/01/11 00:13:04;;;;;;;64.73;20.63;;;0.40;99.90;;;;;;5054841;28;20120;-47
2022/01/11 00:15:31;;;;;;;85.88;22.23;;;0.40;99.90;;;;;;5055003;28;20414;-50
2022/01/11 00:17:57;;;;;;;66.32;18.77;;;0.30;99.90;;;;;;5068426;28;20043;-52
2022/01/11 00:20:26;;;;;;;73.05;21.77;;;0.30;99.90;;;;;;5074581;28;20378;-48
2022/01/11 00:25:28;;;;;;;49.47;19.48;;;0.30;99.90;;;;;;5074593;28;20048;-49
2022/01/11 00:27:54;;;;;;;47.15;18.90;;;0.30;99.90;;;;;;5073184;28;20048;-48
2022/01/11 00:30:20;;;;;;;34.45;18.65;;;0.20;99.90;;;;;;5074423;28;20044;-49
2022/01/11 00:32:51;;;;;;;33.63;17.50;;;0.30;99.90;;;;;;5074463;28;20052;-50
2022/01/11 00:35:22;;;;;;;29.17;17.73;;;0.20;99.90;;;;;;5074518;28;20102;-48
2022/01/11 00:37:48;;;;;;;38.20;19.38;;;0.20;99.90;;;;;;5074935;28;20098;-48
2022/01/11 00:40:14;;;;;;;27.85;17.30;;;0.30;99.90;;;;;;5074885;28;20307;-47
2022/01/11 00:42:40;;;;;;;34.42;19.42;;;0.20;99.90;;;;;;5074176;28;20051;-47
2022/01/11 00:45:10;;;;;;;28.42;18.33;;;0.30;99.90;;;;;;5074325;28;20094;-48
2022/01/11 00:47:36;;;;;;;27.33;18.25;;;0.20;99.90;;;;;;5074288;28;20037;-48
2022/01/11 00:50:03;;;;;;;32.05;18.08;;;0.20;99.90;;;;;;5063720;28;20045;-51
2022/01/11 00:52:29;;;;;;;30.05;17.33;;;0.20;99.90;;;;;;5054066;28;20045;-53
2022/01/11 00:54:55;;;;;;;29.40;17.92;;;0.20;99.90;;;;;;5054477;28;20377;-48
2022/01/11 00:57:21;;;;;;;26.35;16.60;;;0.10;99.90;;;;;;5054266;28;20068;-48
2022/01/11 00:59:47;;;;;;;28.60;18.00;;;0.30;99.90;;;;;;5054182;28;20037;-49
2022/01/11 01:02:14;;;;;;;27.77;18.13;;;0.20;99.90;;;;;;5053909;28;20044;-48
2022/01/11 01:04:39;;;;;;;29.48;18.48;;;0.20;99.90;;;;;;5054330;28;20366;-49
2022/01/11 01:07:05;;;;;;;29.42;18.13;;;0.20;99.90;;;;;;5053830;28;20052;-49
2022/01/11 01:09:43;;;;;;;28.80;18.40;;;0.20;99.90;;;;;;5053726;28;20037;-48
2022/01/11 01:12:09;;;;;;;29.50;17.55;;;0.20;99.90;;;;;;5053676;28;20426;-51
2022/01/11 01:14:35;;;;;;;27.45;17.20;;;0.20;99.90;;;;;;5053749;28;20033;-48
2022/01/11 01:17:01;;;;;;;28.35;17.52;;;0.20;99.90;;;;;;5059943;28;20037;-50
2022/01/11 01:19:27;;;;;;;25.85;16.92;;;0.30;99.90;;;;;;5073488;28;20057;-49
2022/01/11 01:21:54;;;;;;;29.00;18.30;;;0.30;99.90;;;;;;5073514;28;20055;-47
2022/01/11 01:24:21;;;;;;;28.50;17.60;;;0.30;99.90;;;;;;5073515;28;20051;-52
2022/01/11 01:26:46;;;;;;;28.15;18.63;;;0.20;99.90;;;;;;5072141;28;20124;-52
2022/01/11 01:29:12;;;;;;;29.92;18.92;;;0.20;99.90;;;;;;5073210;28;20127;-50
2022/01/11 01:31:38;;;;;;;31.15;18.58;;;0.20;99.90;;;;;;5073269;28;20047;-48
2022/01/11 01:34:05;;;;;;;26.20;17.10;;;0.10;99.90;;;;;;5072116;28;20394;-49
2022/01/11 01:36:31;;;;;;;25.08;16.45;;;0.10;99.90;;;;;;5073052;28;20622;-49
2022/01/11 01:38:57;;;;;;;27.48;17.83;;;0.10;99.90;;;;;;5073394;28;20111;-47
2022/01/11 01:41:23;;;;;;;31.35;18.50;;;0.10;99.90;;;;;;5073118;28;20459;-49
2022/01/11 01:43:53;;;;;;;31.77;19.83;;;0.10;99.90;;;;;;5073265;28;20037;-49
2022/01/11 01:46:20;;;;;;;28.30;17.58;;;0.10;99.90;;;;;;5073121;28;20037;-48
2022/01/11 01:48:46;;;;;;;28.67;18.35;;;0.10;99.90;;;;;;5072938;28;20044;-48
2022/01/11 01:51:12;;;;;;;29.13;18.52;;;0.20;99.90;;;;;;5052879;28;20099;-51
2022/01/11 01:53:46;;;;;;;30.20;18.33;;;0.20;99.90;;;;;;5052962;28;20071;-49
2022/01/11 01:56:12;;;;;;;29.05;17.98;;;0.20;99.90;;;;;;5053007;28;20033;-48
2022/01/11 01:58:38;;;;;;;32.67;19.50;;;0.20;99.90;;;;;;5052827;28;20037;-46
2022/01/11 02:01:05;;;;;;;34.88;18.83;;;0.20;99.90;;;;;;5052853;28;20393;-48
2022/01/11 02:03:38;;;;;;;30.42;19.10;;;0.30;99.90;;;;;;5052513;28;20056;-47
2022/01/11 02:06:08;;;;;;;31.30;19.95;;;0.30;99.90;;;;;;5052903;28;20112;-47
2022/01/11 02:08:35;;;;;;;35.15;19.38;;;0.30;99.90;;;;;;5052567;28;20049;-46
2022/01/11 02:11:01;;;;;;;29.05;18.70;;;0.20;99.90;;;;;;5052734;28;20032;-50
2022/01/11 02:13:28;;;;;;;30.90;19.23;;;0.40;99.90;;;;;;5052046;28;20073;-47
2022/01/11 02:15:54;;;;;;;33.83;18.08;;;0.30;99.90;;;;;;5052507;28;20055;-50
2022/01/11 02:18:23;;;;;;;33.45;18.73;;;0.30;99.90;;;;;;5070208;28;20041;-49
2022/01/11 02:20:51;;;;;;;32.00;18.55;;;0.30;99.90;;;;;;5072222;28;20497;-46
2022/01/11 02:23:19;;;;;;;32.38;18.80;;;0.40;99.90;;;;;;5072426;28;20394;-48
2022/01/11 02:25:45;;;;;;;33.45;21.75;;;0.30;99.90;;;;;;5072467;28;20074;-50
2022/01/11 02:28:14;;;;;;;30.92;18.65;;;0.30;99.90;;;;;;5072391;28;20397;-59
2022/01/11 02:30:40;;;;;;;33.38;19.60;;;0.20;99.90;;;;;;5072141;28;20044;-59
2022/01/11 02:33:14;;;;;;;35.15;20.30;;;0.10;99.90;;;;;;5072370;28;20040;-59
2022/01/11 02:35:46;;;;;;;30.15;20.77;;;0.20;99.90;;;;;;5072235;28;20455;-59
2022/01/11 02:38:12;;;;;;;34.28;19.90;;;0.30;99.90;;;;;;5072232;28;20029;-59
2022/01/11 02:40:37;;;;;;;34.28;19.90;;;0.20;99.90;;;;;;5072143;28;20101;-58
2022/01/11 02:43:03;;;;;;;41.75;20.40;;;0.20;99.90;;;;;;5072107;28;20119;-59
2022/01/11 02:45:29;;;;;;;34.63;21.20;;;0.20;99.90;;;;;;5072009;28;20048;-59
2022/01/11 02:47:54;;;;;;;34.83;20.77;;;0.20;99.90;;;;;;5072183;28;20036;-59
2022/01/11 02:50:20;;;;;;;33.15;20.13;;;0.20;99.90;;;;;;5057632;28;20080;-59
2022/01/11 02:52:46;;;;;;;31.50;19.92;;;0.20;99.90;;;;;;5051827;28;20103;-59
2022/01/11 02:55:14;;;;;;;32.85;19.40;;;0.30;99.90;;;;;;5051989;28;20037;-58
2022/01/11 02:57:40;;;;;;;39.95;19.65;;;0.30;99.90;;;;;;5051911;28;20049;-59
2022/01/11 03:00:13;;;;;;;35.30;20.15;;;0.30;99.90;;;;;;5051872;28;20092;-59
2022/01/11 03:02:39;;;;;;;36.78;20.60;;;0.20;99.90;;;;;;5051847;28;20060;-59
2022/01/11 03:05:07;;;;;;;38.92;20.65;;;0.30;99.90;;;;;;5052116;28;20041;-59
2022/01/11 03:07:32;;;;;;;41.67;21.42;;;0.30;99.90;;;;;;5051839;28;20497;-59
2022/01/11 03:10:09;;;;;;;47.10;21.33;;;0.20;99.90;;;;;;5050790;28;20104;-59
2022/01/11 03:12:35;;;;;;;37.50;20.27;;;0.30;99.90;;;;;;5051598;28;20053;-59
2022/01/11 03:15:01;;;;;;;40.50;22.35;;;0.30;99.90;;;;;;5051898;28;20106;-58
2022/01/11 03:17:27;;;;;;;39.80;21.40;;;0.20;99.90;;;;;;5060892;28;20415;-59
2022/01/11 03:19:54;;;;;;;44.03;21.27;;;0.30;99.90;;;;;;5071673;28;20054;-59
2022/01/11 03:22:20;;;;;;;42.15;23.35;;;0.30;99.90;;;;;;5071777;28;20041;-58
2022/01/11 03:24:46;;;;;;;39.28;23.02;;;0.30;99.90;;;;;;5071512;28;20044;-59
2022/01/11 03:27:12;;;;;;;41.60;22.27;;;0.30;99.90;;;;;;5073848;28;20039;-58
2022/01/11 03:29:39;;;;;;;40.33;21.83;;;0.30;99.90;;;;;;5074527;28;20128;-59
2022/01/11 03:32:07;;;;;;;47.15;22.20;;;0.30;99.90;;;;;;5075334;28;20044;-59
2022/01/11 03:34:33;;;;;;;48.42;24.10;;;0.40;99.90;;;;;;5075677;28;20029;-59
2022/01/11 03:36:59;;;;;;;43.90;24.13;;;0.30;99.90;;;;;;5075414;28;20039;-59
2022/01/11 03:39:26;;;;;;;46.25;22.75;;;0.40;99.90;;;;;;5074179;28;20161;-58
2022/01/11 03:41:52;;;;;;;50.88;24.88;;;0.30;99.90;;;;;;5075481;28;20041;-59
2022/01/11 03:44:18;;;;;;;56.10;25.90;;;0.20;99.90;;;;;;5075476;28;20040;-59
2022/01/11 03:46:44;;;;;;;52.97;25.45;;;0.20;99.90;;;;;;5075332;28;20044;-59
2022/01/11 03:49:10;;;;;;;50.15;26.30;;;0.30;99.90;;;;;;5075277;28;20113;-59
2022/01/11 03:51:38;;;;;;;55.40;27.52;;;0.30;99.90;;;;;;5075214;28;20041;-59
2022/01/11 03:54:11;;;;;;;56.88;26.90;;;0.30;99.90;;;;;;5075063;28;20048;-59
2022/01/11 03:56:37;;;;;;;55.05;25.58;;;0.40;99.90;;;;;;5075264;28;20056;-59
2022/01/11 03:59:07;;;;;;;56.10;27.95;;;0.40;99.90;;;;;;5075201;28;20102;-59
2022/01/11 04:01:37;;;;;;;54.35;28.40;;;0.30;99.90;;;;;;5075328;28;20044;-59
2022/01/11 04:04:04;;;;;;;51.38;27.20;;;0.40;99.90;;;;;;5075066;28;20090;-59
2022/01/11 04:06:30;;;;;;;58.03;29.30;;;0.40;99.90;;;;;;5074770;28;20424;-59
2022/01/11 04:08:56;;;;;;;64.38;28.75;;;0.30;99.90;;;;;;5075051;28;20054;-47
2022/01/11 04:11:21;;;;;;;57.88;26.80;;;0.30;99.90;;;;;;5075002;28;20500;-48
2022/01/11 04:13:48;;;;;;;60.30;29.20;;;0.30;99.90;;;;;;5074849;28;20173;-48
2022/01/11 04:16:14;;;;;;;68.90;29.48;;;0.40;99.90;;;;;;5074713;28;20473;-47
2022/01/11 04:18:40;;;;;;;66.57;30.55;;;0.30;99.90;;;;;;5074684;28;20044;-47
2022/01/11 04:21:06;;;;;;;65.10;30.02;;;0.30;99.90;;;;;;5074532;28;20451;-48
2022/01/11 04:23:33;;;;;;;67.47;29.45;;;0.40;99.90;;;;;;5074643;28;20040;-49
2022/01/11 04:25:59;;;;;;;70.00;31.23;;;0.30;99.90;;;;;;5074678;28;20081;-49
2022/01/11 04:28:27;;;;;;;66.85;32.50;;;0.30;99.90;;;;;;5074391;28;20557;-47
2022/01/11 04:30:57;;;;;;;61.08;29.40;;;0.40;99.90;;;;;;5074418;28;20043;-47
2022/01/11 04:33:27;;;;;;;59.83;29.65;;;0.40;99.90;;;;;;5074902;28;20040;-46
2022/01/11 04:35:54;;;;;;;62.67;30.58;;;0.30;99.90;;;;;;5074352;28;20095;-47
2022/01/11 04:38:22;;;;;;;69.15;30.73;;;0.40;99.90;;;;;;5074255;28;20039;-47
2022/01/11 04:40:48;;;;;;;74.63;32.22;;;0.30;99.90;;;;;;5074404;28;20154;-48
2022/01/11 04:43:14;;;;;;;64.40;30.08;;;0.30;99.90;;;;;;5074401;28;20115;-47
2022/01/11 04:45:39;;;;;;;64.63;28.98;;;0.30;99.90;;;;;;5074326;28;20047;-48
2022/01/11 04:48:06;;;;;;;68.40;30.85;;;0.30;99.90;;;;;;5074114;28;20048;-48
2022/01/11 04:50:33;;;;;;;67.88;30.42;;;0.30;99.90;;;;;;5059659;28;20077;-48
2022/01/11 04:52:59;;;;;;;62.25;29.02;;;0.30;99.90;;;;;;5054108;28;20044;-51
2022/01/11 04:55:25;;;;;;;60.13;27.73;;;0.20;99.90;;;;;;5052964;28;20037;-48
2022/01/11 04:57:51;;;;;;;55.63;26.85;;;0.20;99.90;;;;;;5054026;28;20481;-48
2022/01/11 05:00:19;;;;;;;55.78;26.55;;;0.30;99.90;;;;;;5052805;28;20055;-49
2022/01/11 05:02:45;;;;;;;60.42;26.40;;;0.30;99.90;;;;;;5053828;28;20033;-50
2022/01/11 05:05:11;;;;;;;62.88;27.02;;;0.20;99.90;;;;;;5054202;28;20044;-47
2022/01/11 05:07:37;;;;;;;61.35;30.02;;;0.30;99.90;;;;;;5053993;28;20041;-47
2022/01/11 05:10:04;;;;;;;60.00;26.38;;;0.40;99.90;;;;;;5053787;28;20045;-46
2022/01/11 05:12:31;;;;;;;62.25;27.90;;;0.30;99.90;;;;;;5053823;28;20405;-46
2022/01/11 05:14:57;;;;;;;61.75;27.13;;;0.40;99.90;;;;;;5052416;28;20036;-47
2022/01/11 05:17:22;;;;;;;58.58;26.10;;;0.30;99.90;;;;;;5063904;28;20039;-49
2022/01/11 05:19:48;;;;;;;62.15;27.98;;;0.40;99.90;;;;;;5073638;28;20320;-50
2022/01/11 05:22:14;;;;;;;54.83;27.08;;;0.30;99.90;;;;;;5073710;28;20052;-51
2022/01/11 05:24:40;;;;;;;59.88;24.35;;;0.30;99.90;;;;;;5072735;28;20047;-49
2022/01/11 05:27:06;;;;;;;54.45;25.60;;;0.30;99.90;;;;;;5072075;28;20040;-51
2022/01/11 05:29:32;;;;;;;58.08;26.02;;;0.40;99.90;;;;;;5071785;28;20489;-49
2022/01/11 05:31:58;;;;;;;59.05;26.58;;;0.40;99.90;;;;;;5071895;28;20124;-49
2022/01/11 05:34:27;;;;;;;54.28;24.13;;;0.40;99.90;;;;;;5071958;28;20064;-52
2022/01/11 05:36:53;;;;;;;53.25;24.50;;;0.50;99.90;;;;;;5071904;28;20055;-48
2022/01/11 05:39:18;;;;;;;50.50;23.55;;;0.40;99.90;;;;;;5071715;28;20033;-48
2022/01/11 05:41:44;;;;;;;52.20;23.33;;;0.40;99.90;;;;;;5071615;28;20528;-48
2022/01/11 05:44:10;;;;;;;58.90;25.63;;;0.50;99.90;;;;;;5071452;28;20699;-47
2022/01/11 05:46:37;;;;;;;52.13;22.33;;;0.40;99.90;;;;;;5071749;28;20048;-48
2022/01/11 05:49:02;;;;;;;47.83;22.77;;;0.40;99.90;;;;;;5067051;28;20036;-48
2022/01/11 05:51:28;;;;;;;53.30;24.52;;;0.50;99.90;;;;;;5051357;28;20064;-47
2022/01/11 05:53:55;;;;;;;50.88;23.77;;;0.50;99.90;;;;;;5051599;28;20041;-48
2022/01/11 05:56:21;;;;;;;46.72;22.95;;;0.50;99.90;;;;;;5050198;28;20049;-60
2022/01/11 05:58:47;;;;;;;54.47;24.40;;;0.50;99.90;;;;;;5051356;28;20563;-59
2022/01/11 06:01:14;;;;;;;53.28;23.25;;;0.50;99.90;;;;;;5051191;28;20041;-60
2022/01/11 06:03:39;;;;;;;53.42;24.13;;;0.40;99.90;;;;;;5051432;28;20033;-59
2022/01/11 06:06:05;;;;;;;48.05;22.33;;;0.40;99.90;;;;;;5051264;28;20544;-59
2022/01/11 06:08:31;;;;;;;43.40;20.85;;;0.40;99.90;;;;;;5051273;28;20047;-52
2022/01/11 06:10:57;;;;;;;42.63;20.63;;;0.40;99.90;;;;;;5051278;28;20116;-52
2022/01/11 06:13:23;;;;;;;43.42;21.73;;;0.40;99.90;;;;;;5050952;28;20048;-48
2022/01/11 06:15:49;;;;;;;51.55;23.25;;;0.50;99.90;;;;;;5051326;28;20090;-48
2022/01/11 06:18:15;;;;;;;46.13;22.90;;;0.40;99.90;;;;;;5067487;28;20488;-48
2022/01/11 06:20:41;;;;;;;48.95;21.83;;;0.50;99.90;;;;;;5070617;28;20045;-47
2022/01/11 06:23:06;;;;;;;41.15;21.23;;;0.50;99.90;;;;;;5057812;28;20050;-50
2022/01/11 06:25:32;;;;;;;45.03;21.85;;;0.50;99.90;;;;;;5059567;28;20048;-46
2022/01/11 06:27:58;;;;;;;45.13;22.70;;;0.40;99.90;;;;;;5068885;28;20392;-49
2022/01/11 06:30:24;;;;;;;43.50;21.02;;;0.50;99.90;;;;;;5070625;28;20381;-49
2022/01/11 06:32:49;;;;;;;44.50;20.90;;;0.50;99.90;;;;;;5071095;28;20207;-59
2022/01/11 06:35:17;;;;;;;47.33;22.42;;;0.50;99.90;;;;;;5070715;28;20130;-60
2022/01/11 06:37:44;;;;;;;43.42;22.20;;;0.40;99.90;;;;;;5070764;28;20081;-59
2022/01/11 06:40:11;;;;;;;43.33;21.27;;;0.30;99.90;;;;;;5070744;28;20165;-59
2022/01/11 06:42:37;;;;;;;44.03;20.30;;;0.40;99.90;;;;;;5070578;28;20498;-59
2022/01/11 06:45:04;;;;;;;44.17;22.08;;;0.40;99.90;;;;;;5070792;28;20115;-60
2022/01/11 06:47:30;;;;;;;43.97;20.90;;;0.30;99.90;;;;;;5070854;28;20040;-60
2022/01/11 06:49:55;;;;;;;38.45;20.70;;;0.40;99.90;;;;;;5060780;28;20456;-60
2022/01/11 06:52:21;;;;;;;38.55;20.63;;;0.50;99.90;;;;;;5050522;28;20128;-59
2022/01/11 06:54:47;;;;;;;41.83;20.33;;;0.40;99.90;;;;;;5050095;28;20363;-59
2022/01/11 06:57:13;;;;;;;41.13;20.10;;;0.30;99.90;;;;;;5050382;28;20073;-59
2022/01/11 06:59:38;;;;;;;41.05;20.63;;;0.40;99.90;;;;;;5050530;28;20489;-59
2022/01/11 07:02:05;;;;;;;36.63;20.83;;;0.40;99.90;;;;;;5050544;28;20043;-48
2022/01/11 07:04:31;;;;;;;40.63;20.73;;;0.40;99.90;;;;;;5050479;28;20044;-50
2022/01/11 07:06:56;;;;;;;40.65;19.48;;;0.40;99.90;;;;;;5050425;28;20033;-47
2022/01/11 07:09:22;;;;;;;41.67;20.05;;;0.40;99.90;;;;;;5064733;28;20039;-49
2022/01/11 07:11:48;;;;;;;39.63;19.85;;;0.40;99.90;;;;;;5070117;28;20060;-50
2022/01/11 07:14:13;;;;;;;44.58;21.23;;;0.30;99.90;;;;;;5070009;28;20120;-48
2022/01/11 07:16:39;;;;;;;42.60;22.05;;;0.30;99.90;;;;;;5070151;28;20197;-48
2022/01/11 07:19:05;;;;;;;40.83;20.10;;;0.40;99.90;;;;;;5069896;28;20044;-48
2022/01/11 07:21:34;;;;;;;36.90;19.38;;;0.40;99.90;;;;;;5070268;28;20304;-49
2022/01/11 07:24:01;;;;;;;39.80;18.42;;;0.40;99.90;;;;;;5070197;28;20112;-59
2022/01/11 07:26:27;;;;;;;37.97;18.88;;;0.30;99.90;;;;;;5068743;28;20410;-50
2022/01/11 07:28:53;;;;;;;39.95;19.60;;;0.40;99.90;;;;;;5070284;28;20036;-50
2022/01/11 07:31:19;;;;;;;38.53;20.30;;;0.40;99.90;;;;;;5070341;28;20068;-47
2022/01/11 07:33:44;;;;;;;38.70;19.38;;;0.30;99.90;;;;;;5070116;28;20036;-48
2022/01/11 07:36:10;;;;;;;36.75;20.17;;;0.40;99.90;;;;;;5070195;28;20044;-47
2022/01/11 07:38:36;;;;;;;37.83;19.60;;;0.40;99.90;;;;;;5069934;28;20052;-51
2022/01/11 07:41:02;;;;;;;40.72;20.50;;;0.40;99.90;;;;;;5069928;28;20080;-49
2022/01/11 07:43:27;;;;;;;35.15;18.20;;;0.30;99.90;;;;;;5069869;28;20043;-48
2022/01/11 07:45:53;;;;;;;37.60;19.70;;;0.40;99.90;;;;;;5068458;28;20055;-48
2022/01/11 07:48:19;;;;;;;34.65;17.70;;;0.40;99.90;;;;;;5067422;28;20045;-48
2022/01/11 07:50:44;;;;;;;36.45;20.15;;;0.40;99.90;;;;;;5052758;28;20037;-49
2022/01/11 07:53:10;;;;;;;39.85;18.20;;;0.40;99.90;;;;;;5049287;28;20179;-53
2022/01/11 07:55:38;;;;;;;34.42;18.48;;;0.40;99.90;;;;;;5049494;28;20472;-52
2022/01/11 07:58:04;;;;;;;33.72;17.73;;;0.30;99.90;;;;;;5049478;28;20072;-49
2022/01/11 08:00:31;;;;;;;39.00;19.77;;;0.30;99.90;;;;;;5049586;28;20033;-49
2022/01/11 08:02:57;;;;;;;34.95;17.40;;;0.30;99.90;;;;;;5049720;28;20051;-49
2022/01/11 08:05:23;;;;;;;37.55;18.48;;;0.30;99.90;;;;;;5049842;28;20049;-48
2022/01/11 08:07:49;;;;;;;37.72;18.73;;;0.30;99.90;;;;;;5049772;28;20084;-48
2022/01/11 08:10:18;;;;;;;35.63;18.77;;;0.40;99.90;;;;;;5049720;28;20119;-51
2022/01/11 08:12:44;;;;;;;35.28;18.55;;;0.30;99.90;;;;;;5050811;28;20052;-52
2022/01/11 08:15:10;;;;;;;37.33;18.65;;;0.30;99.90;;;;;;5053531;28;20037;-47
2022/01/11 08:17:36;;;;;;;37.63;17.75;;;0.30;99.90;;;;;;5064113;28;20054;-49
2022/01/11 08:20:03;;;;;;;32.05;17.10;;;0.40;99.90;;;;;;5072725;28;20139;-47
2022/01/11 08:22:29;;;;;;;39.13;19.33;;;0.30;99.90;;;;;;5073184;28;20052;-50
2022/01/11 08:24:54;;;;;;;36.10;18.17;;;0.30;99.90;;;;;;5072146;28;20113;-47
2022/01/11 08:27:22;;;;;;;33.08;17.23;;;0.40;99.90;;;;;;5073236;28;20032;-51
2022/01/11 08:29:49;;;;;;;36.75;17.63;;;0.40;99.90;;;;;;5072936;28;20047;-54
2022/01/11 08:32:15;;;;;;;31.92;17.67;;;0.30;99.90;;;;;;5072876;28;20079;-47
2022/01/11 08:34:41;;;;;;;39.95;19.75;;;0.30;99.90;;;;;;5072774;28;20064;-48
2022/01/11 08:37:08;;;;;;;33.30;18.08;;;0.30;99.90;;;;;;5071421;28;20044;-49
2022/01/11 08:39:35;;;;;;;40.58;18.45;;;0.30;99.90;;;;;;5072798;28;20045;-48
2022/01/11 08:42:00;;;;;;;30.35;15.88;;;0.30;99.90;;;;;;5072902;28;20037;-47
2022/01/11 08:44:27;;;;;;;35.08;18.38;;;0.30;99.90;;;;;;5072968;28;20046;-48
2022/01/11 08:46:54;;;;;;;30.90;16.65;;;0.40;99.90;;;;;;5072884;28;20045;-49
2022/01/11 08:49:21;;;;;;;31.23;17.33;;;0.40;99.90;;;;;;5067248;28;20041;-51
2022/01/11 08:51:47;;;;;;;37.08;17.90;;;0.30;99.90;;;;;;5052365;28;20045;-59
2022/01/11 08:54:13;;;;;;;34.17;18.10;;;0.30;99.90;;;;;;5052547;28;20033;-59
2022/01/11 08:56:40;;;;;;;32.67;17.17;;;0.20;99.90;;;;;;5051389;28;20090;-60
2022/01/11 08:59:06;;;;;;;33.25;18.27;;;0.30;99.90;;;;;;5052581;28;20041;-59
2022/01/11 09:01:34;;;;;;;37.03;16.17;;;0.30;99.90;;;;;;5052321;28;20048;-60
2022/01/11 09:04:00;;;;;;;34.92;16.58;;;0.30;99.90;;;;;;5052449;28;20041;-60
2022/01/11 09:06:26;;;;;;;35.83;16.70;;;0.30;99.90;;;;;;5052261;28;20048;-59
2022/01/11 09:08:52;;;;;;;30.63;15.75;;;0.20;99.90;;;;;;5052474;28;20397;-60
2022/01/11 09:11:18;;;;;;;30.60;16.65;;;0.30;99.90;;;;;;5052452;28;20044;-53
2022/01/11 09:13:44;;;;;;;29.58;16.40;;;0.20;99.90;;;;;;5052196;28;20136;-48
2022/01/11 09:16:11;;;;;;;31.95;16.08;;;0.30;99.90;;;;;;5052078;28;20083;-51
2022/01/11 09:18:38;;;;;;;30.98;16.50;;;0.20;99.90;;;;;;5071260;28;20052;-50
2022/01/11 09:21:05;;;;;;;30.92;16.15;;;0.30;99.90;;;;;;5071547;28;20523;-49
2022/01/11 09:23:32;;;;;;;30.13;16.00;;;0.30;99.90;;;;;;5071876;28;20052;-49
2022/01/11 09:25:58;;;;;;;29.48;16.08;;;0.30;99.90;;;;;;5072141;28;20053;-51
2022/01/11 09:28:24;;;;;;;31.88;16.08;;;0.30;99.90;;;;;;5070502;28;20052;-48
2022/01/11 09:30:51;;;;;;;28.88;15.07;;;0.20;99.90;;;;;;5071759;28;20040;-48
2022/01/11 09:33:17;;;;;;;29.20;14.45;;;0.20;99.90;;;;;;5071599;28;20040;-50
2022/01/11 09:35:43;;;;;;;31.05;15.38;;;0.30;99.90;;;;;;5070494;28;20037;-52
2022/01/11 09:38:09;;;;;;;27.80;15.73;;;0.30;99.90;;;;;;5072039;28;20098;-50
2022/01/11 09:40:35;;;;;;;29.02;15.43;;;0.30;99.90;;;;;;5071646;28;20393;-50
2022/01/11 09:43:01;;;;;;;30.52;15.93;;;0.30;99.90;;;;;;5071528;28;20107;-49
2022/01/11 09:45:27;;;;;;;29.17;15.25;;;0.40;99.90;;;;;;5071744;28;20504;-50
2022/01/11 09:47:52;;;;;;;31.52;16.95;;;0.40;99.90;;;;;;5070986;28;20046;-50
2022/01/11 09:50:19;;;;;;;31.25;15.88;;;0.40;99.90;;;;;;5057898;28;20120;-49
2022/01/11 09:52:45;;;;;;;29.80;15.27;;;0.40;99.90;;;;;;5050436;28;20439;-50
2022/01/11 09:55:14;;;;;;;30.30;15.50;;;0.40;99.90;;;;;;5053291;28;20047;-48
2022/01/11 09:57:41;;;;;;;29.38;15.02;;;0.40;99.90;;;;;;5052550;28;20555;-48
2022/01/11 10:00:09;;;;;;;33.13;16.90;;;0.30;99.90;;;;;;5052879;28;20401;-51
2022/01/11 10:02:35;;;;;;;31.33;16.40;;;0.40;99.90;;;;;;5052908;28;20041;-50
2022/01/11 10:05:05;;;;;;;29.48;16.05;;;0.30;99.90;;;;;;5051626;28;20480;-50
2022/01/11 10:07:40;;;;;;;31.67;16.20;;;0.40;99.90;;;;;;5052332;28;20045;-49
2022/01/11 10:10:14;;;;;;;31.73;14.65;;;0.30;99.90;;;;;;5051297;28;20049;-49
2022/01/11 10:12:43;;;;;;;30.52;15.55;;;0.30;99.90;;;;;;5052578;28;20048;-60
2022/01/11 10:15:09;;;;;;;28.20;14.93;;;0.40;99.90;;;;;;5052044;28;20397;-60
2022/01/11 10:17:53;;;;;;;28.55;15.30;;;0.30;99.90;;;;;;5063055;28;20043;-60
2022/01/11 10:20:22;;;;;;;27.90;14.88;;;0.40;99.90;;;;;;5072351;28;20119;-60
2022/01/11 10:22:56;;;;;;;32.42;16.83;;;0.40;99.90;;;;;;5072267;28;20125;-60
2022/01/11 10:25:22;;;;;;;34.90;15.52;;;0.40;99.90;;;;;;5072271;28;20045;-60
2022/01/11 10:27:57;;;;;;;33.35;16.83;;;0.40;99.90;;;;;;5072102;28;20396;-60
2022/01/11 10:30:25;;;;;;;33.60;17.42;;;0.50;99.90;;;;;;5072305;28;20032;-60
2022/01/11 10:32:52;;;;;;;31.55;16.20;;;0.50;99.90;;;;;;5072231;28;20392;-60
2022/01/11 10:35:24;;;;;;;36.53;17.17;;;0.60;99.90;;;;;;5071834;28;20036;-60
2022/01/11 10:37:55;;;;;;;31.52;16.48;;;0.60;99.90;;;;;;5071180;28;20498;-60
2022/01/11 10:40:34;;;;;;;32.72;16.60;;;0.70;99.90;;;;;;5072097;28;20040;-49
2022/01/11 10:43:06;;;;;;;36.08;18.70;;;0.80;99.90;;;;;;5072129;28;20040;-49
2022/01/11 10:45:35;;;;;;;34.30;17.92;;;0.80;99.90;;;;;;5072231;28;20123;-60
2022/01/11 10:48:07;;;;;;;32.17;16.20;;;0.90;99.90;;;;;;5072178;28;20044;-60
2022/01/11 10:50:39;;;;;;;39.55;19.42;;;1.10;99.90;;;;;;5057021;28;20060;-60
2022/01/11 10:53:09;;;;;;;34.33;17.70;;;1.00;99.90;;;;;;5051968;28;20041;-60
2022/01/11 10:55:35;;;;;;;33.97;17.63;;;1.10;99.90;;;;;;5052146;28;20029;-49
2022/01/11 10:58:05;;;;;;;35.33;18.55;;;1.20;99.90;;;;;;5050696;28;20496;-49
2022/01/11 11:00:33;;;;;;;36.03;20.83;;;1.20;99.90;;;;;;5051552;28;20049;-48
2022/01/11 11:03:03;;;;;;;33.25;17.67;;;1.20;99.90;;;;;;5051689;28;20048;-50
2022/01/11 11:05:30;;;;;;;38.65;20.52;;;1.20;99.90;;;;;;5051463;28;20045;-49
2022/01/11 11:07:58;;;;;;;36.42;19.63;;;1.20;99.90;;;;;;5051879;28;20052;-50
2022/01/11 11:10:32;;;;;;;37.65;18.08;;;1.20;99.90;;;;;;5050316;28;20045;-49
2022/01/11 11:12:59;;;;;;;39.80;20.75;;;1.30;99.90;;;;;;5051493;28;20041;-60
2022/01/11 11:15:28;;;;;;;36.53;19.08;;;1.40;99.90;;;;;;5051194;28;20037;-60
2022/01/11 11:17:54;;;;;;;36.28;17.60;;;1.50;99.90;;;;;;5064773;28;20104;-60
2022/01/11 11:20:20;;;;;;;35.60;18.42;;;1.50;99.90;;;;;;5071582;28;20131;-60
2022/01/11 11:22:46;;;;;;;41.25;21.00;;;1.60;99.90;;;;;;5070140;28;20431;-60
2022/01/11 11:25:12;;;;;;;36.58;19.92;;;1.70;99.90;;;;;;5071500;28;20048;-60
2022/01/11 11:27:37;;;;;;;37.70;18.10;;;1.80;99.90;;;;;;5071567;28;20045;-49
2022/01/11 11:30:03;;;;;;;37.03;18.13;;;1.80;99.90;;;;;;5071503;28;20041;-49
2022/01/11 11:32:31;;;;;;;35.60;18.35;;;1.80;99.90;;;;;;5071168;28;20049;-49
2022/01/11 11:34:57;;;;;;;34.97;18.45;;;1.90;99.90;;;;;;5071581;28;20048;-50
2022/01/11 11:37:28;;;;;;;36.80;19.55;;;2.00;99.90;;;;;;5071237;28;20036;-48
2022/01/11 11:39:58;;;;;;;35.10;19.63;;;2.00;99.90;;;;;;5071202;28;20045;-49
2022/01/11 11:42:25;;;;;;;37.75;18.83;;;2.00;99.90;;;;;;5071924;28;20045;-51
2022/01/11 11:44:51;;;;;;;37.35;19.70;;;1.90;99.90;;;;;;5071049;28;20561;-60
2022/01/11 11:47:31;;;;;;;36.17;18.80;;;1.90;99.90;;;;;;5071968;28;20127;-59
2022/01/11 11:50:00;;;;;;;37.05;18.98;;;1.90;99.90;;;;;;5065435;28;20055;-48
2022/01/11 11:52:42;;;;;;;39.45;19.42;;;1.90;99.90;;;;;;5055263;28;20041;-50
2022/01/11 11:55:19;;;;;;;36.13;18.05;;;1.90;99.90;;;;;;5055183;28;20045;-49
2022/01/11 11:57:47;;;;;;;37.67;18.60;;;2.00;99.90;;;;;;5055102;28;20476;-51
2022/01/11 12:00:18;;;;;;;37.63;18.38;;;2.00;99.90;;;;;;5061256;28;20396;-50
2022/01/11 12:02:53;;;;;;;36.22;18.30;;;2.00;99.90;;;;;;5064512;28;20114;-60
2022/01/11 12:05:36;;;;;;;41.97;18.92;;;1.90;99.90;;;;;;5068380;28;20053;-60
2022/01/11 12:08:24;;;;;;;34.92;18.45;;;2.00;99.90;;;;;;5074761;28;20063;-60
2022/01/11 12:10:53;;;;;;;36.03;18.92;;;2.00;99.90;;;;;;5072541;28;20049;-60
2022/01/11 12:13:37;;;;;;;34.60;18.25;;;2.00;99.90;;;;;;5073458;28;20434;-60
2022/01/11 12:16:03;;;;;;;38.50;18.10;;;2.00;99.90;;;;;;5073801;28;20037;-60
2022/01/11 12:18:42;;;;;;;38.78;20.40;;;2.00;99.90;;;;;;5074626;28;20122;-49
2022/01/11 12:21:10;;;;;;;33.22;18.23;;;2.00;99.90;;;;;;5074488;28;20443;-47
2022/01/11 12:23:36;;;;;;;36.33;18.50;;;2.10;99.90;;;;;;5074578;28;20381;-60
2022/01/11 12:26:16;;;;;;;36.20;19.08;;;2.10;99.90;;;;;;5074605;28;20048;-60
2022/01/11 12:29:05;;;;;;;38.90;19.45;;;2.10;99.90;;;;;;5073400;28;20508;-60
2022/01/11 12:31:51;;;;;;;35.95;18.88;;;2.10;99.90;;;;;;5074224;28;20127;-47
2022/01/11 12:34:17;;;;;;;37.17;18.05;;;2.10;99.90;;;;;;5074094;28;20519;-53
2022/01/11 12:36:52;;;;;;;30.08;15.98;;;2.10;99.90;;;;;;5074364;28;20071;-59
2022/01/11 12:39:19;;;;;;;31.77;17.25;;;2.20;99.90;;;;;;5074733;28;20098;-60